Time;durP1;ratioP1;P1;durP2;ratioP2;P2;SDS_P1;SDS_P2;PMS_P1;PMS_P2;Temp;Humidity;BMP_temperature;BMP_pressure;BME280_temperature;BME280_humidity;BME280_pressure;Samples;Min_cycle;Max_cycle;Signal;HPM_P1;HPM_P2
2021/12/28 00:01:06;;;;;;;5.47;0.88;;;21.50;99.90;;;;;;5023831;28;20205;-94
2021/12/28 00:03:40;;;;;;;5.43;1.10;;;21.50;99.90;;;;;;5021532;28;20660;-87
2021/12/28 00:06:14;;;;;;;4.45;0.85;;;21.40;99.90;;;;;;5025584;28;20231;-90
2021/12/28 00:08:45;;;;;;;5.20;1.00;;;21.50;99.90;;;;;;5007092;28;20198;-92
2021/12/28 00:11:16;;;;;;;4.20;0.82;;;21.60;99.90;;;;;;5026733;28;20221;-90
2021/12/28 00:13:47;;;;;;;4.30;0.90;;;21.60;99.90;;;;;;5024426;28;20204;-91
2021/12/28 00:16:30;;;;;;;4.28;0.90;;;21.70;99.90;;;;;;5025804;28;20205;-92
2021/12/28 00:19:05;;;;;;;3.33;0.90;;;21.70;99.90;;;;;;5024044;28;20189;-90
2021/12/28 00:21:41;;;;;;;5.15;0.77;;;21.80;99.90;;;;;;5027052;28;20281;-92
2021/12/28 00:24:19;;;;;;;4.80;0.90;;;21.70;99.90;;;;;;5025877;28;20263;-92
2021/12/28 00:26:53;;;;;;;4.95;0.88;;;21.60;99.90;;;;;;5024439;28;20280;-90
2021/12/28 00:29:24;;;;;;;2.25;0.75;;;21.50;99.90;;;;;;5023889;28;20219;-90
2021/12/28 00:31:56;;;;;;;5.43;0.68;;;21.30;99.90;;;;;;5007811;28;20567;-93
2021/12/28 00:34:31;;;;;;;2.85;0.90;;;21.10;99.90;;;;;;5025044;28;20244;-90
2021/12/28 00:37:03;;;;;;;5.10;0.73;;;21.10;99.90;;;;;;5030152;28;20552;-92
2021/12/28 00:39:34;;;;;;;4.03;0.70;;;21.00;99.90;;;;;;5006943;28;20213;-89
2021/12/28 00:42:08;;;;;;;3.08;0.63;;;21.10;99.90;;;;;;5010124;28;20201;-91
2021/12/28 00:44:39;;;;;;;3.15;0.80;;;21.30;99.90;;;;;;5006725;28;20223;-85
2021/12/28 00:47:10;;;;;;;4.70;0.63;;;21.50;99.90;;;;;;5020317;28;20276;-86
2021/12/28 00:49:43;;;;;;;2.50;0.70;;;21.70;99.90;;;;;;5022291;28;20240;-85
2021/12/28 00:52:14;;;;;;;4.72;0.70;;;21.80;99.90;;;;;;5020067;28;20206;-84
2021/12/28 00:54:45;;;;;;;2.63;0.77;;;22.00;99.90;;;;;;5019775;28;20193;-86
2021/12/28 00:57:16;;;;;;;5.20;0.85;;;22.10;99.90;;;;;;5021153;28;20664;-85
2021/12/28 00:59:47;;;;;;;2.25;0.73;;;22.30;99.90;;;;;;5015108;28;20229;-87
2021/12/28 01:02:18;;;;;;;5.03;0.95;;;22.50;99.90;;;;;;5017766;28;20197;-86
2021/12/28 01:04:53;;;;;;;4.05;0.90;;;22.70;99.90;;;;;;5020007;28;20197;-86
2021/12/28 01:07:24;;;;;;;3.50;1.20;;;22.70;99.90;;;;;;5020353;28;21940;-86
2021/12/28 01:09:55;;;;;;;4.22;1.27;;;22.60;99.90;;;;;;5018265;28;20209;-86
2021/12/28 01:12:25;;;;;;;4.55;1.00;;;22.50;99.90;;;;;;5023694;28;20255;-88
2021/12/28 01:14:56;;;;;;;3.08;0.80;;;22.40;99.90;;;;;;5022338;28;20660;-86
2021/12/28 01:17:27;;;;;;;3.20;0.95;;;22.40;99.90;;;;;;5022886;28;20216;-93
2021/12/28 01:19:59;;;;;;;3.65;1.13;;;22.20;99.90;;;;;;5029264;28;20630;-92
2021/12/28 01:22:31;;;;;;;2.97;1.10;;;22.10;99.90;;;;;;5035124;28;20208;-92
2021/12/28 01:25:02;;;;;;;4.82;1.15;;;21.80;99.90;;;;;;5030538;28;20233;-92
2021/12/28 01:27:33;;;;;;;3.53;0.90;;;21.60;99.90;;;;;;5025921;28;20680;-92
2021/12/28 01:30:03;;;;;;;4.80;1.10;;;21.30;99.90;;;;;;5003561;28;20228;-94
2021/12/28 01:32:35;;;;;;;3.30;0.80;;;21.10;99.90;;;;;;5017535;28;20221;-93
2021/12/28 01:35:11;;;;;;;4.53;0.90;;;21.00;99.90;;;;;;5024187;28;20205;-86
2021/12/28 01:37:42;;;;;;;4.80;1.13;;;20.90;99.90;;;;;;5020986;28;20271;-86
2021/12/28 01:40:15;;;;;;;3.30;0.80;;;20.90;99.90;;;;;;5027265;28;20213;-93
2021/12/28 01:43:12;;;;;;;3.58;0.82;;;20.80;99.90;;;;;;5056984;28;20205;-94
2021/12/28 01:45:48;;;;;;;4.75;1.02;;;20.70;99.90;;;;;;5049078;28;20194;-94
2021/12/28 01:48:22;;;;;;;8.27;1.60;;;20.60;99.90;;;;;;5031306;28;20229;-93
2021/12/28 01:53:47;;;;;;;7.43;1.55;;;20.30;99.90;;;;;;5039520;28;20208;-93
2021/12/28 01:56:21;;;;;;;9.52;1.65;;;20.00;99.90;;;;;;5022662;28;20228;-92
2021/12/28 01:58:53;;;;;;;4.97;1.40;;;19.90;99.90;;;;;;5037185;28;20574;-88
2021/12/28 02:01:25;;;;;;;5.47;1.33;;;19.70;99.90;;;;;;5037417;28;20189;-92
2021/12/28 02:03:56;;;;;;;8.25;1.52;;;19.70;99.90;;;;;;5037518;28;20201;-94
2021/12/28 02:06:31;;;;;;;4.90;1.30;;;19.70;99.90;;;;;;5035958;28;20197;-88
2021/12/28 02:09:03;;;;;;;6.13;1.45;;;19.60;99.90;;;;;;5030435;28;20201;-92
2021/12/28 02:11:37;;;;;;;5.65;1.33;;;19.50;99.90;;;;;;5036199;28;20236;-92
2021/12/28 02:14:09;;;;;;;6.57;1.35;;;19.50;99.90;;;;;;4996306;28;20545;-93
2021/12/28 02:16:40;;;;;;;4.97;1.17;;;19.50;99.90;;;;;;5029691;28;20198;-91
2021/12/28 02:19:15;;;;;;;4.55;1.05;;;19.40;99.90;;;;;;5028998;28;20216;-93
2021/12/28 02:21:52;;;;;;;5.95;1.10;;;19.30;99.90;;;;;;5022117;28;20201;-91
2021/12/28 02:24:23;;;;;;;5.03;1.17;;;19.40;99.90;;;;;;5026894;28;20292;-93
2021/12/28 02:26:55;;;;;;;7.35;1.88;;;19.40;99.90;;;;;;5028048;28;20225;-92
2021/12/28 02:29:29;;;;;;;10.02;2.90;;;19.50;99.90;;;;;;5025708;28;20201;-94
2021/12/28 02:32:00;;;;;;;6.38;1.25;;;19.50;99.90;;;;;;5013924;28;20229;-94
2021/12/28 02:34:32;;;;;;;2.80;0.82;;;19.70;99.90;;;;;;5029908;28;20209;-93
2021/12/28 02:37:08;;;;;;;4.72;1.17;;;19.80;99.90;;;;;;5012234;28;20205;-94
2021/12/28 02:39:40;;;;;;;4.05;1.10;;;19.90;99.90;;;;;;5025838;28;20197;-92
2021/12/28 02:42:14;;;;;;;6.05;1.10;;;19.90;99.90;;;;;;5026879;28;20267;-93
2021/12/28 02:44:49;;;;;;;3.15;0.98;;;20.10;99.90;;;;;;5031952;28;20208;-93
2021/12/28 02:47:28;;;;;;;5.90;1.60;;;20.30;99.90;;;;;;5031522;28;20235;-94
2021/12/28 02:50:00;;;;;;;4.10;1.00;;;20.50;99.90;;;;;;5036714;28;20212;-94
2021/12/28 02:52:36;;;;;;;5.38;1.17;;;20.70;99.90;;;;;;5027557;28;20198;-94
2021/12/28 02:55:09;;;;;;;2.85;1.02;;;20.90;99.90;;;;;;5009183;28;20263;-95
2021/12/28 02:57:47;;;;;;;6.20;1.30;;;21.00;99.90;;;;;;5018254;28;20273;-93
2021/12/28 03:00:33;;;;;;;4.72;0.93;;;21.20;99.90;;;;;;5025135;28;20209;-93
2021/12/28 03:03:08;;;;;;;5.55;1.23;;;21.20;99.90;;;;;;5024697;28;20236;-93
2021/12/28 03:05:42;;;;;;;7.13;1.40;;;21.30;99.90;;;;;;5026149;28;20279;-86
2021/12/28 03:08:18;;;;;;;2.88;0.70;;;21.30;99.90;;;;;;5020543;28;20192;-86
2021/12/28 03:10:50;;;;;;;2.70;0.93;;;21.40;99.90;;;;;;5012720;28;20232;-87
2021/12/28 03:13:22;;;;;;;4.25;0.63;;;21.50;99.90;;;;;;5032387;28;20232;-86
2021/12/28 03:15:54;;;;;;;5.25;1.45;;;21.70;99.90;;;;;;5039286;28;20189;-92
2021/12/28 03:18:31;;;;;;;3.75;1.00;;;21.60;99.90;;;;;;5036221;28;20248;-94
2021/12/28 03:21:06;;;;;;;3.45;0.90;;;21.50;99.90;;;;;;5007710;28;20194;-94
2021/12/28 03:23:44;;;;;;;5.95;1.10;;;21.50;99.90;;;;;;5037115;28;20201;-90
2021/12/28 03:26:17;;;;;;;3.65;0.90;;;21.40;99.90;;;;;;5037465;28;20235;-93
2021/12/28 03:28:49;;;;;;;5.18;0.90;;;21.40;99.90;;;;;;5003096;28;20269;-93
2021/12/28 03:31:24;;;;;;;5.00;1.10;;;21.40;99.90;;;;;;5038344;28;20216;-95
2021/12/28 03:33:56;;;;;;;4.22;0.80;;;21.40;99.90;;;;;;5021593;28;20219;-93
2021/12/28 03:36:31;;;;;;;2.92;0.75;;;21.50;99.90;;;;;;5001670;28;20200;-93
2021/12/28 03:39:05;;;;;;;5.10;0.80;;;21.60;99.90;;;;;;5035425;28;20197;-93
2021/12/28 03:41:37;;;;;;;6.60;0.85;;;21.60;99.90;;;;;;5053060;28;20203;-91
2021/12/28 03:44:09;;;;;;;4.63;0.77;;;21.70;99.90;;;;;;5041737;28;20263;-91
2021/12/28 03:46:40;;;;;;;3.85;0.88;;;21.70;99.90;;;;;;5033786;28;20304;-87
2021/12/28 03:49:11;;;;;;;3.17;0.85;;;21.80;99.90;;;;;;5029851;28;20209;-86
2021/12/28 03:51:42;;;;;;;4.95;0.90;;;21.90;99.90;;;;;;5030826;28;20645;-86
2021/12/28 03:54:14;;;;;;;2.53;0.70;;;21.90;99.90;;;;;;5012160;28;20653;-87
2021/12/28 03:56:45;;;;;;;2.80;0.90;;;21.80;99.90;;;;;;5014859;28;20201;-86
2021/12/28 03:59:18;;;;;;;3.88;1.00;;;21.80;99.90;;;;;;5029671;28;20248;-87
2021/12/28 04:01:48;;;;;;;4.68;0.90;;;22.00;99.90;;;;;;5032434;28;20209;-87
2021/12/28 04:04:19;;;;;;;3.70;0.95;;;22.10;99.90;;;;;;5031786;28;20263;-85
2021/12/28 04:06:54;;;;;;;4.13;1.00;;;22.20;99.90;;;;;;5014703;28;20201;-87
2021/12/28 04:09:56;;;;;;;3.67;0.70;;;22.10;99.90;;;;;;5018646;28;20201;-87
2021/12/28 04:12:28;;;;;;;3.67;0.80;;;22.20;99.90;;;;;;5012014;28;20224;-85
2021/12/28 04:15:00;;;;;;;4.70;1.00;;;22.40;99.90;;;;;;4995520;28;20251;-86
2021/12/28 04:17:36;;;;;;;5.40;0.95;;;22.50;99.90;;;;;;5032987;28;20200;-85
2021/12/28 04:20:08;;;;;;;3.08;0.80;;;22.50;99.90;;;;;;5029392;28;20223;-86
2021/12/28 04:22:38;;;;;;;2.60;0.68;;;22.50;99.90;;;;;;5031378;28;20221;-86
2021/12/28 04:25:16;;;;;;;4.93;1.00;;;22.60;99.90;;;;;;5003818;28;20586;-94
2021/12/28 04:27:50;;;;;;;3.97;1.10;;;22.60;99.90;;;;;;4999187;28;20259;-96
2021/12/28 04:30:21;;;;;;;3.88;0.98;;;22.60;99.90;;;;;;4981311;28;20202;-92
2021/12/28 04:32:52;;;;;;;3.53;0.68;;;22.60;99.90;;;;;;5048038;28;20233;-94
2021/12/28 04:35:23;;;;;;;7.10;1.10;;;22.60;99.90;;;;;;5029300;28;20193;-92
2021/12/28 04:37:55;;;;;;;5.10;0.82;;;22.60;99.90;;;;;;5023812;28;20205;-93
2021/12/28 04:40:31;;;;;;;5.40;1.20;;;22.40;99.90;;;;;;5038386;28;20638;-92
2021/12/28 04:48:31;;;;;;;7.00;0.82;;;22.00;99.90;;;;;;5046185;28;20244;-91
2021/12/28 04:51:03;;;;;;;5.53;1.08;;;22.00;99.90;;;;;;5044755;28;20224;-91
2021/12/28 04:53:36;;;;;;;4.22;0.82;;;22.20;99.90;;;;;;5047080;28;20245;-92
2021/12/28 04:56:12;;;;;;;3.58;0.80;;;22.30;99.90;;;;;;5049807;28;20244;-91
2021/12/28 04:58:45;;;;;;;5.25;1.10;;;22.20;99.90;;;;;;5051152;28;20205;-91
2021/12/28 05:01:17;;;;;;;4.97;1.00;;;22.20;99.90;;;;;;5046434;28;20249;-93
2021/12/28 05:03:53;;;;;;;6.40;1.10;;;22.50;99.90;;;;;;5044580;28;20240;-91
2021/12/28 05:09:20;;;;;;;3.55;0.82;;;23.20;99.90;;;;;;5046028;28;20239;-91
2021/12/28 05:11:53;;;;;;;6.45;1.00;;;23.70;99.90;;;;;;5029098;28;20208;-86
2021/12/28 05:14:30;;;;;;;6.35;1.15;;;23.90;99.90;;;;;;5051314;28;20173;-87
2021/12/28 05:17:03;;;;;;;5.63;1.20;;;23.60;99.90;;;;;;5028690;28;20190;-88
2021/12/28 05:19:37;;;;;;;5.35;0.90;;;23.30;99.90;;;;;;5048624;28;21094;-93
2021/12/28 05:22:12;;;;;;;5.57;0.90;;;23.00;99.90;;;;;;5046856;28;20262;-95
2021/12/28 05:27:30;;;;;;;4.05;0.93;;;22.40;99.90;;;;;;5049417;28;20197;-96
2021/12/28 05:30:02;;;;;;;4.85;1.08;;;22.20;99.90;;;;;;5036341;28;20204;-96
2021/12/28 05:32:33;;;;;;;5.38;0.88;;;22.20;99.90;;;;;;5040834;28;20257;-95
2021/12/28 05:35:07;;;;;;;3.25;0.93;;;22.40;99.90;;;;;;5048771;28;20186;-96
2021/12/28 05:37:39;;;;;;;7.63;1.08;;;22.40;99.90;;;;;;5039068;28;20197;-96
2021/12/28 05:40:13;;;;;;;5.88;1.08;;;22.70;99.90;;;;;;5051924;28;20278;-93
2021/12/28 05:42:48;;;;;;;6.05;1.05;;;23.00;99.90;;;;;;5057856;28;20273;-93
2021/12/28 05:45:20;;;;;;;7.00;1.00;;;23.10;99.90;;;;;;5058108;28;20203;-94
2021/12/28 05:47:50;;;;;;;5.95;0.90;;;23.40;99.90;;;;;;5039670;28;20252;-96
2021/12/28 05:50:21;;;;;;;5.65;0.80;;;24.10;99.90;;;;;;5037294;28;20209;-95
2021/12/28 05:52:54;;;;;;;4.72;1.10;;;24.40;99.90;;;;;;5037018;28;20225;-95
2021/12/28 05:55:26;;;;;;;5.25;1.00;;;24.60;99.90;;;;;;5038212;28;20197;-95
2021/12/28 05:57:59;;;;;;;9.15;1.45;;;24.50;99.90;;;;;;5019828;28;20608;-94
2021/12/28 06:00:31;;;;;;;2.70;0.80;;;24.20;99.90;;;;;;5033558;28;20984;-95
2021/12/28 06:03:02;;;;;;;2.47;0.70;;;23.90;99.90;;;;;;5028949;28;20240;-95
2021/12/28 06:05:33;;;;;;;3.15;0.90;;;23.70;99.90;;;;;;5037083;28;20234;-93
2021/12/28 06:08:05;;;;;;;5.07;0.85;;;23.50;99.90;;;;;;5068456;28;20225;-95
2021/12/28 06:10:37;;;;;;;3.88;1.00;;;23.50;99.90;;;;;;5071363;28;20215;-94
2021/12/28 06:16:10;;;;;;;4.05;1.10;;;23.20;99.90;;;;;;5043415;28;20200;-94
2021/12/28 06:18:42;;;;;;;5.22;0.75;;;23.20;99.90;;;;;;5041338;28;20193;-91
2021/12/28 06:21:13;;;;;;;7.75;1.10;;;23.00;99.90;;;;;;5045503;28;20603;-93
2021/12/28 06:23:44;;;;;;;3.05;0.80;;;23.20;99.90;;;;;;5043923;28;20209;-94
2021/12/28 06:26:16;;;;;;;4.38;1.13;;;23.30;99.90;;;;;;5047165;28;20216;-93
2021/12/28 06:29:06;;;;;;;4.78;0.90;;;23.40;99.90;;;;;;5029627;28;20212;-94
2021/12/28 06:31:42;;;;;;;3.65;1.05;;;23.80;99.90;;;;;;5059791;28;20228;-95
2021/12/28 06:34:15;;;;;;;4.43;1.10;;;24.20;99.90;;;;;;5049489;28;20197;-93
2021/12/28 06:36:46;;;;;;;3.40;1.00;;;24.90;99.90;;;;;;5043510;28;20683;-93
2021/12/28 06:39:18;;;;;;;3.95;1.10;;;25.40;99.90;;;;;;5043917;28;20220;-91
2021/12/28 06:41:50;;;;;;;5.05;1.13;;;26.00;99.90;;;;;;5043757;28;20232;-92
2021/12/28 06:44:27;;;;;;;3.85;0.82;;;26.20;99.90;;;;;;5042538;28;20213;-96
2021/12/28 06:47:01;;;;;;;3.58;0.75;;;26.80;99.90;;;;;;5043824;28;20251;-95
2021/12/28 06:49:33;;;;;;;6.35;1.27;;;26.70;99.90;;;;;;5059090;28;20204;-96
2021/12/28 06:52:06;;;;;;;4.97;0.90;;;26.00;99.90;;;;;;5056012;28;20232;-95
2021/12/28 06:54:37;;;;;;;5.57;0.90;;;25.40;99.90;;;;;;5044916;28;20209;-96
2021/12/28 06:57:12;;;;;;;5.65;1.15;;;24.90;99.90;;;;;;5021439;28;20202;-88
2021/12/28 06:59:47;;;;;;;3.67;0.93;;;24.40;99.90;;;;;;5013806;28;20216;-89
2021/12/28 07:02:21;;;;;;;3.55;0.90;;;24.10;99.90;;;;;;5030402;28;20634;-90
2021/12/28 07:04:53;;;;;;;4.60;1.00;;;24.00;99.90;;;;;;5015604;28;20206;-90
2021/12/28 07:07:24;;;;;;;2.35;0.80;;;24.90;99.90;;;;;;5032026;28;20711;-86
2021/12/28 07:09:55;;;;;;;3.15;0.80;;;25.20;99.90;;;;;;5032876;28;20235;-85
2021/12/28 07:12:26;;;;;;;5.47;1.17;;;25.00;99.90;;;;;;5030088;28;20213;-86
2021/12/28 07:14:58;;;;;;;4.93;1.15;;;25.80;99.90;;;;;;5032890;28;20185;-86
2021/12/28 07:17:29;;;;;;;3.63;0.90;;;26.60;99.90;;;;;;5032781;28;20729;-86
2021/12/28 07:20:00;;;;;;;7.10;1.70;;;27.10;99.90;;;;;;5033444;28;20216;-93
2021/12/28 07:22:32;;;;;;;5.82;1.40;;;26.50;99.90;;;;;;5035056;28;20646;-95
2021/12/28 07:25:04;;;;;;;4.43;1.48;;;25.60;99.90;;;;;;5034966;28;20201;-96
2021/12/28 07:27:35;;;;;;;4.75;1.40;;;24.60;99.90;;;;;;5034803;28;20208;-95
2021/12/28 07:30:16;;;;;;;6.40;1.15;;;23.90;99.90;;;;;;5036313;28;20236;-92
2021/12/28 07:32:51;;;;;;;4.60;0.90;;;23.60;99.90;;;;;;5022140;28;20284;-94
2021/12/28 07:35:21;;;;;;;4.63;1.17;;;23.20;99.90;;;;;;5018596;28;20217;-86
2021/12/28 07:37:55;;;;;;;6.05;1.15;;;22.90;99.90;;;;;;5026371;28;20275;-94
2021/12/28 07:40:27;;;;;;;4.57;1.00;;;22.60;99.90;;;;;;5045203;28;20244;-94
2021/12/28 07:42:59;;;;;;;6.65;1.40;;;22.50;99.90;;;;;;5033647;28;20225;-94
2021/12/28 07:45:34;;;;;;;5.80;1.30;;;22.40;99.90;;;;;;5006866;28;20222;-94
2021/12/28 07:48:05;;;;;;;5.55;1.10;;;22.30;99.90;;;;;;5022845;28;20233;-94
2021/12/28 07:50:38;;;;;;;4.47;1.20;;;22.20;99.90;;;;;;5032003;28;20217;-96
2021/12/28 07:53:10;;;;;;;5.93;1.25;;;22.10;99.90;;;;;;5034733;28;20229;-95
2021/12/28 07:55:41;;;;;;;5.80;1.23;;;22.00;99.90;;;;;;5039818;28;20241;-93
2021/12/28 07:58:13;;;;;;;8.77;1.77;;;22.00;99.90;;;;;;5039219;28;20226;-96
2021/12/28 08:00:48;;;;;;;4.22;0.90;;;21.80;99.90;;;;;;5034975;28;20197;-94
2021/12/28 08:03:19;;;;;;;5.47;1.15;;;21.70;99.90;;;;;;5035361;28;20280;-94
2021/12/28 08:05:52;;;;;;;4.28;1.08;;;21.70;99.90;;;;;;5025118;28;20713;-96
2021/12/28 08:08:30;;;;;;;3.83;1.33;;;21.60;99.90;;;;;;5023377;28;20205;-92
2021/12/28 08:11:02;;;;;;;4.40;1.10;;;21.50;99.90;;;;;;5032758;28;20721;-93
2021/12/28 08:13:33;;;;;;;4.70;1.30;;;21.50;99.90;;;;;;5038080;28;20237;-94
2021/12/28 08:16:08;;;;;;;6.75;1.50;;;21.40;99.90;;;;;;5025032;28;20284;-94
2021/12/28 08:18:42;;;;;;;3.67;1.10;;;21.50;99.90;;;;;;5018235;28;20223;-93
2021/12/28 08:21:19;;;;;;;4.10;1.30;;;21.40;99.90;;;;;;5035332;28;20217;-93
2021/12/28 08:23:52;;;;;;;4.40;0.90;;;21.40;99.90;;;;;;5032433;28;20556;-94
2021/12/28 08:26:24;;;;;;;4.60;0.70;;;21.50;99.90;;;;;;5039441;28;20287;-93
2021/12/28 08:28:56;;;;;;;6.00;0.90;;;21.50;99.90;;;;;;5038933;28;20228;-95
2021/12/28 08:31:32;;;;;;;4.32;0.93;;;21.50;99.90;;;;;;5033807;28;20602;-85
2021/12/28 08:34:02;;;;;;;7.28;1.50;;;21.50;99.90;;;;;;5018435;28;20229;-84
2021/12/28 08:36:35;;;;;;;3.95;0.80;;;21.50;99.90;;;;;;5042429;28;20217;-90
2021/12/28 08:39:06;;;;;;;5.03;1.17;;;21.40;99.90;;;;;;5034680;28;20221;-91
2021/12/28 08:41:37;;;;;;;5.32;1.20;;;21.40;99.90;;;;;;5025576;28;20212;-83
2021/12/28 08:44:10;;;;;;;5.65;1.25;;;21.20;99.90;;;;;;5029522;28;20194;-84
2021/12/28 08:46:44;;;;;;;4.03;1.13;;;21.10;99.90;;;;;;5022372;28;20804;-92
2021/12/28 08:49:16;;;;;;;5.97;1.33;;;21.00;99.90;;;;;;5034035;28;20255;-92
2021/12/28 08:51:49;;;;;;;4.20;0.90;;;20.90;99.90;;;;;;5031429;28;20213;-90
2021/12/28 08:54:21;;;;;;;4.60;1.10;;;20.90;99.90;;;;;;5031492;28;20283;-91
2021/12/28 08:56:53;;;;;;;7.05;1.05;;;20.90;99.90;;;;;;5008858;28;20205;-93
2021/12/28 08:59:24;;;;;;;6.35;1.05;;;20.80;99.90;;;;;;5032829;28;20236;-94
2021/12/28 09:02:00;;;;;;;3.58;1.05;;;20.80;99.90;;;;;;5034773;28;20197;-88
2021/12/28 09:07:21;;;;;;;3.25;1.10;;;20.70;99.90;;;;;;5033584;28;20197;-92
2021/12/28 09:12:42;;;;;;;5.32;1.42;;;20.60;99.90;;;;;;5027874;28;20205;-92
2021/12/28 09:15:16;;;;;;;3.45;1.00;;;20.60;99.90;;;;;;5032822;28;22449;-94
2021/12/28 09:18:02;;;;;;;4.03;0.93;;;20.50;99.90;;;;;;5023454;28;20228;-91
2021/12/28 09:20:33;;;;;;;7.70;1.20;;;20.50;99.90;;;;;;5031581;28;20220;-93
2021/12/28 09:23:04;;;;;;;3.92;0.80;;;20.40;99.90;;;;;;5031112;28;20197;-94
2021/12/28 09:25:36;;;;;;;2.70;0.90;;;20.40;99.90;;;;;;5030153;28;20195;-93
2021/12/28 09:28:14;;;;;;;2.83;1.00;;;20.40;99.90;;;;;;5028606;28;20228;-93
2021/12/28 09:30:45;;;;;;;4.43;1.00;;;20.40;99.90;;;;;;5029977;28;20681;-95
2021/12/28 09:33:19;;;;;;;4.97;1.10;;;20.40;99.90;;;;;;5031651;28;20256;-92
2021/12/28 09:35:50;;;;;;;5.45;1.10;;;20.40;99.90;;;;;;5029444;28;20205;-91
2021/12/28 09:38:21;;;;;;;5.00;1.25;;;20.30;99.90;;;;;;5029559;28;20260;-94
2021/12/28 09:40:53;;;;;;;4.95;1.33;;;20.30;99.90;;;;;;5029973;28;20409;-89
2021/12/28 09:43:24;;;;;;;3.78;0.73;;;20.30;99.90;;;;;;5028244;28;20193;-89
2021/12/28 09:45:55;;;;;;;6.85;1.08;;;20.30;99.90;;;;;;5024404;28;20704;-89
2021/12/28 09:48:31;;;;;;;5.75;1.50;;;20.30;99.90;;;;;;5028429;28;20236;-90
2021/12/28 09:51:03;;;;;;;5.32;1.40;;;20.30;99.90;;;;;;5029810;28;20189;-90
2021/12/28 09:53:35;;;;;;;4.10;0.95;;;20.30;99.90;;;;;;5026575;28;20233;-90
2021/12/28 09:56:07;;;;;;;4.20;1.10;;;20.30;99.90;;;;;;5030751;28;20204;-92
2021/12/28 09:58:41;;;;;;;6.40;1.27;;;20.30;99.90;;;;;;5027236;28;20191;-90
2021/12/28 10:01:13;;;;;;;7.68;1.40;;;20.20;99.90;;;;;;5026822;28;20725;-89
2021/12/28 10:03:48;;;;;;;4.70;1.58;;;20.20;99.90;;;;;;5026261;28;20307;-87
2021/12/28 10:06:22;;;;;;;6.75;1.60;;;20.20;99.90;;;;;;5008802;28;20192;-88
2021/12/28 10:09:10;;;;;;;6.40;1.65;;;20.20;99.90;;;;;;5021404;28;20194;-83
2021/12/28 10:11:44;;;;;;;8.70;1.52;;;20.20;99.90;;;;;;5023033;28;20202;-83
2021/12/28 10:14:25;;;;;;;5.70;1.10;;;20.20;99.90;;;;;;5022473;28;20301;-94
2021/12/28 10:16:57;;;;;;;5.50;1.30;;;20.20;99.90;;;;;;5025150;28;20202;-89
2021/12/28 10:19:49;;;;;;;4.60;1.20;;;20.20;99.90;;;;;;5026164;28;20194;-88
2021/12/28 10:22:26;;;;;;;8.20;1.10;;;20.20;99.90;;;;;;5026844;28;20225;-91
2021/12/28 10:24:59;;;;;;;7.45;1.10;;;20.20;99.90;;;;;;5026284;28;20197;-92
2021/12/28 10:27:33;;;;;;;3.67;0.95;;;20.30;99.90;;;;;;5025750;28;20193;-89
2021/12/28 10:30:21;;;;;;;4.78;0.95;;;20.30;99.90;;;;;;5029336;28;20652;-90
2021/12/28 10:32:53;;;;;;;3.33;0.70;;;20.30;99.90;;;;;;5025363;28;20225;-91
2021/12/28 10:35:29;;;;;;;7.53;1.30;;;20.40;99.90;;;;;;5028600;28;20201;-92
2021/12/28 10:38:01;;;;;;;2.63;1.00;;;20.40;99.90;;;;;;5026828;28;20220;-90
2021/12/28 10:40:34;;;;;;;3.38;0.80;;;20.40;99.90;;;;;;5026096;28;20251;-90
2021/12/28 10:43:09;;;;;;;3.92;0.80;;;20.50;99.90;;;;;;5024339;28;20206;-93
2021/12/28 10:45:43;;;;;;;5.13;0.88;;;20.40;99.90;;;;;;5019852;28;20212;-93
2021/12/28 10:48:19;;;;;;;5.10;0.80;;;20.40;99.90;;;;;;5004472;28;20241;-92
2021/12/28 10:50:59;;;;;;;6.07;0.90;;;20.40;99.90;;;;;;5028131;28;20197;-95
2021/12/28 10:53:36;;;;;;;4.72;0.88;;;20.40;99.90;;;;;;5030290;28;20316;-93
2021/12/28 10:56:09;;;;;;;6.45;0.88;;;20.40;99.90;;;;;;5032842;28;20740;-92
2021/12/28 10:58:43;;;;;;;3.47;0.80;;;20.50;99.90;;;;;;5031370;28;20193;-91
2021/12/28 11:01:20;;;;;;;3.85;1.00;;;20.50;99.90;;;;;;5028719;28;20193;-88
2021/12/28 11:03:54;;;;;;;4.28;0.80;;;20.50;99.90;;;;;;5026851;28;20200;-94
2021/12/28 11:06:31;;;;;;;4.32;0.80;;;20.50;99.90;;;;;;5008285;28;20255;-92
2021/12/28 11:09:06;;;;;;;7.43;1.15;;;20.50;99.90;;;;;;5027868;28;20469;-96
2021/12/28 11:11:41;;;;;;;5.78;0.95;;;20.40;99.90;;;;;;5015068;28;20208;-94
2021/12/28 11:14:18;;;;;;;6.07;1.30;;;20.50;99.90;;;;;;5016947;28;20274;-83
2021/12/28 11:16:54;;;;;;;5.10;0.80;;;20.40;99.90;;;;;;5020387;28;20197;-80
2021/12/28 11:19:29;;;;;;;2.55;0.73;;;20.40;99.90;;;;;;5027464;28;20220;-90
2021/12/28 11:22:05;;;;;;;3.47;0.57;;;20.40;99.90;;;;;;5024015;28;20205;-90
2021/12/28 11:24:39;;;;;;;5.47;0.90;;;20.40;99.90;;;;;;5008688;28;20716;-90
2021/12/28 11:27:11;;;;;;;2.78;0.65;;;20.40;99.90;;;;;;5024482;28;20227;-90
2021/12/28 11:29:43;;;;;;;5.70;0.90;;;20.30;99.90;;;;;;5021439;28;20195;-92
2021/12/28 11:32:18;;;;;;;4.10;0.82;;;20.30;99.90;;;;;;5025324;28;20267;-89
2021/12/28 11:34:49;;;;;;;3.40;0.73;;;20.30;99.90;;;;;;5025253;28;20282;-89
2021/12/28 11:37:23;;;;;;;4.07;0.90;;;20.30;99.90;;;;;;5024825;28;20197;-88
2021/12/28 11:39:59;;;;;;;4.60;0.85;;;20.20;99.90;;;;;;5023128;28;20201;-91
2021/12/28 11:42:31;;;;;;;4.85;0.90;;;20.20;99.90;;;;;;5021319;28;20382;-88
2021/12/28 11:45:03;;;;;;;2.38;0.80;;;20.20;99.90;;;;;;5021724;28;20235;-90
2021/12/28 11:47:35;;;;;;;4.32;1.05;;;20.30;99.90;;;;;;5020273;28;20247;-92
2021/12/28 11:50:08;;;;;;;1.80;0.60;;;20.20;99.90;;;;;;5019192;28;20657;-84
2021/12/28 11:52:43;;;;;;;3.97;0.75;;;20.10;99.90;;;;;;5016240;28;20665;-87
2021/12/28 11:55:16;;;;;;;4.93;0.80;;;20.10;99.90;;;;;;5019685;28;20220;-84
2021/12/28 11:57:54;;;;;;;4.57;0.82;;;20.10;99.90;;;;;;5018021;28;20289;-85
2021/12/28 12:00:25;;;;;;;1.65;0.60;;;20.10;99.90;;;;;;5019714;28;20205;-85
2021/12/28 12:02:58;;;;;;;3.80;1.00;;;20.10;99.90;;;;;;5018895;28;20605;-85
2021/12/28 12:05:30;;;;;;;4.30;0.77;;;20.10;99.90;;;;;;5019152;28;20661;-86
2021/12/28 12:08:13;;;;;;;5.72;1.10;;;20.10;99.90;;;;;;5024764;28;20689;-85
2021/12/28 12:10:45;;;;;;;2.78;0.90;;;20.10;99.90;;;;;;5022873;28;20208;-85
2021/12/28 12:13:22;;;;;;;4.85;1.00;;;20.10;99.90;;;;;;5021243;28;20201;-84
2021/12/28 12:15:56;;;;;;;3.03;1.10;;;20.00;99.90;;;;;;5021170;28;20710;-84
2021/12/28 12:18:29;;;;;;;5.63;1.35;;;20.00;99.90;;;;;;5012196;28;20208;-82
2021/12/28 12:21:06;;;;;;;3.67;1.00;;;19.90;99.90;;;;;;5015030;28;20201;-85
2021/12/28 12:23:47;;;;;;;7.82;1.40;;;19.90;99.90;;;;;;5018144;28;20204;-85
2021/12/28 12:26:31;;;;;;;4.22;1.00;;;20.00;99.90;;;;;;5018442;28;20202;-85
2021/12/28 12:29:02;;;;;;;3.22;0.90;;;20.00;99.90;;;;;;5017958;28;20669;-84
2021/12/28 12:31:37;;;;;;;3.50;0.85;;;20.00;99.90;;;;;;5019925;28;20197;-84
2021/12/28 12:34:29;;;;;;;2.75;1.00;;;20.00;99.90;;;;;;5019836;28;20236;-84
2021/12/28 12:37:00;;;;;;;3.42;0.80;;;20.00;99.90;;;;;;5018670;28;20213;-84
2021/12/28 12:39:41;;;;;;;3.10;0.80;;;20.00;99.90;;;;;;5018480;28;20216;-84
2021/12/28 12:42:22;;;;;;;3.08;0.82;;;20.00;99.90;;;;;;5023016;28;20205;-85
2021/12/28 12:44:52;;;;;;;3.58;1.10;;;20.00;99.90;;;;;;5016552;28;20608;-84
2021/12/28 12:47:23;;;;;;;3.80;1.00;;;20.00;99.90;;;;;;5014503;28;20244;-85
2021/12/28 12:50:09;;;;;;;3.40;0.80;;;20.00;99.90;;;;;;5017512;28;20197;-85
2021/12/28 12:52:41;;;;;;;4.10;0.98;;;20.00;99.90;;;;;;5017387;28;20676;-84
2021/12/28 12:55:14;;;;;;;1.73;0.57;;;20.00;99.90;;;;;;5019408;28;20638;-85
2021/12/28 12:57:45;;;;;;;3.13;0.95;;;19.90;99.90;;;;;;5016644;28;20201;-93
2021/12/28 13:00:19;;;;;;;3.53;0.80;;;19.90;99.90;;;;;;5020702;28;20200;-92
2021/12/28 13:03:04;;;;;;;2.30;0.70;;;19.80;99.90;;;;;;5021278;28;20267;-90
2021/12/28 13:05:48;;;;;;;4.45;0.73;;;19.70;99.90;;;;;;5022924;28;20201;-92
2021/12/28 13:08:22;;;;;;;3.33;0.80;;;19.60;99.90;;;;;;5030968;28;20197;-93
2021/12/28 13:10:59;;;;;;;5.00;1.20;;;19.50;99.90;;;;;;5030289;28;20262;-96
2021/12/28 13:13:31;;;;;;;3.15;0.70;;;19.50;99.90;;;;;;5029621;28;20205;-96
2021/12/28 13:16:11;;;;;;;5.43;0.90;;;19.40;99.90;;;;;;5034884;28;20201;-96
2021/12/28 13:18:41;;;;;;;6.18;1.10;;;19.40;99.90;;;;;;5022439;28;20212;-85
2021/12/28 13:21:12;;;;;;;4.72;0.90;;;19.30;99.90;;;;;;5028832;28;20207;-93
2021/12/28 13:23:43;;;;;;;3.05;1.08;;;19.20;99.90;;;;;;5027987;28;20201;-93
2021/12/28 13:26:15;;;;;;;3.13;0.85;;;19.20;99.90;;;;;;5033798;28;20244;-96
2021/12/28 13:28:47;;;;;;;5.30;1.23;;;19.20;99.90;;;;;;5047093;28;20190;-96
2021/12/28 13:31:24;;;;;;;4.40;1.08;;;19.10;99.90;;;;;;5030576;28;20247;-93
2021/12/28 13:34:01;;;;;;;4.95;0.85;;;19.10;99.90;;;;;;5030127;28;20217;-93
2021/12/28 13:36:33;;;;;;;5.35;1.10;;;19.10;99.90;;;;;;5032517;28;20748;-94
2021/12/28 13:39:11;;;;;;;4.28;1.10;;;19.00;99.90;;;;;;5028298;28;20202;-90
2021/12/28 13:41:51;;;;;;;4.90;1.10;;;19.00;99.90;;;;;;5028986;28;20209;-92
2021/12/28 13:44:23;;;;;;;5.18;1.35;;;18.80;99.90;;;;;;5043157;28;20228;-93